createdAt,value
2023-04-02T00:01:22.812Z,99344.69
2023-04-02T00:03:53.996Z,99349.06
2023-04-02T00:06:33.231Z,99343.59
2023-04-02T00:09:33.111Z,99350.53
2023-04-02T00:12:15.340Z,99351.47
2023-04-02T00:14:47.320Z,99350.94
2023-04-02T00:17:13.946Z,99357.91
2023-04-02T00:20:05.345Z,99365.25
2023-04-02T00:22:33.643Z,99367.91
2023-04-02T00:25:02.580Z,99373.16
2023-04-02T00:27:31.274Z,99378.91
2023-04-02T00:29:59.134Z,99383.13
2023-04-02T00:32:32.709Z,99380.44
2023-04-02T00:35:00.119Z,99382.81
2023-04-02T00:37:39.083Z,99391.84
2023-04-02T00:40:16.595Z,99390.63
2023-04-02T00:42:44.768Z,99392.88
2023-04-02T00:45:24.682Z,99392.28
2023-04-02T00:47:52.364Z,99394.22
2023-04-02T00:50:26.388Z,99397.97
2023-04-02T00:52:54.526Z,99401.28
2023-04-02T00:55:40.313Z,99392.50
2023-04-02T00:58:29.920Z,99397.16
2023-04-02T01:00:56.917Z,99393.00
2023-04-02T01:03:23.613Z,99403.97
2023-04-02T01:05:56.153Z,99403.63
2023-04-02T01:08:40.998Z,99403.41
2023-04-02T01:11:44.643Z,99399.75
2023-04-02T01:14:29.310Z,99405.63
2023-04-02T01:17:03.886Z,99405.06
2023-04-02T01:19:36.011Z,99399.75
2023-04-02T01:22:22.052Z,99406.00
2023-04-02T01:24:49.137Z,99409.34
2023-04-02T01:27:26.326Z,99420.06
2023-04-02T01:29:56.595Z,99416.28
2023-04-02T01:32:25.817Z,99422.94
2023-04-02T01:34:52.946Z,99419.13
2023-04-02T01:37:49.443Z,99417.78
2023-04-02T01:40:44.391Z,99421.47
2023-04-02T01:43:29.072Z,99433.97
2023-04-02T01:45:58.134Z,99434.91
2023-04-02T01:48:30.261Z,99435.25
2023-04-02T01:50:59.275Z,99438.06
2023-04-02T01:53:28.215Z,99434.31
2023-04-02T01:55:57.536Z,99446.13
2023-04-02T01:58:27.553Z,99440.63
2023-04-02T02:01:22.885Z,99440.09
2023-04-02T02:03:50.452Z,99441.59
2023-04-02T02:06:19.369Z,99443.06
2023-04-02T02:08:56.518Z,99451.72
2023-04-02T02:11:28.266Z,99446.50
2023-04-02T02:14:00.523Z,99460.66
2023-04-02T02:16:29.343Z,99461.34
2023-04-02T02:19:04.778Z,99458.16
2023-04-02T02:21:39.814Z,99469.41
2023-04-02T02:24:17.054Z,99465.94
2023-04-02T02:26:46.983Z,99473.25
2023-04-02T02:29:18.466Z,99475.91
2023-04-02T02:31:52.341Z,99476.06
2023-04-02T02:34:24.984Z,99480.38
2023-04-02T02:36:56.590Z,99479.63
2023-04-02T02:39:29.590Z,99484.69
2023-04-02T02:42:03.367Z,99485.53
2023-04-02T02:44:35.017Z,99488.28
2023-04-02T02:47:04.979Z,99493.81
2023-04-02T02:49:36.228Z,99496.91
2023-04-02T02:52:08.275Z,99499.56
2023-04-02T02:54:38.142Z,99493.84
2023-04-02T02:57:10.224Z,99497.84
2023-04-02T02:59:37.995Z,99499.63
2023-04-02T03:02:07.048Z,99505.81
2023-04-02T03:04:37.061Z,99511.16
2023-04-02T03:07:06.105Z,99505.13
2023-04-02T03:10:19.671Z,99509.13
2023-04-02T03:13:02.557Z,99519.84
2023-04-02T03:15:32.103Z,99515.66
2023-04-02T03:18:14.294Z,99516.66
2023-04-02T03:20:52.402Z,99522.03
2023-04-02T03:23:24.827Z,99528.38
2023-04-02T03:26:01.677Z,99527.69
2023-04-02T03:28:32.518Z,99533.06
2023-04-02T03:31:05.881Z,99533.81
2023-04-02T03:33:39.954Z,99540.19
2023-04-02T03:36:29.766Z,99549.69
2023-04-02T03:39:05.841Z,99550.03
2023-04-02T03:41:41.539Z,99553.84
2023-04-02T03:44:36.528Z,99561.94
2023-04-02T03:47:12.960Z,99560.19
2023-04-02T03:49:47.964Z,99570.00
2023-04-02T03:52:22.777Z,99571.75
2023-04-02T03:54:53.847Z,99576.59
2023-04-02T03:57:37.532Z,99584.44
2023-04-02T04:00:39.140Z,99586.63
2023-04-02T04:03:13.985Z,99591.75
2023-04-02T04:05:58.868Z,99598.13
2023-04-02T04:08:32.823Z,99590.81
2023-04-02T04:11:07.446Z,99594.06
2023-04-02T04:13:46.701Z,99607.94
2023-04-02T04:16:20.140Z,99604.41
2023-04-02T04:19:04.989Z,99610.53
2023-04-02T04:21:37.041Z,99620.28
2023-04-02T04:24:39.142Z,99626.66
2023-04-02T04:27:42.768Z,99628.38
2023-04-02T04:30:30.345Z,99629.03
2023-04-02T04:33:03.850Z,99629.84
2023-04-02T04:35:35.070Z,99631.13
2023-04-02T04:38:15.568Z,99640.81
2023-04-02T04:40:50.363Z,99646.19
2023-04-02T04:43:25.775Z,99647.13
2023-04-02T04:45:58.328Z,99654.94
2023-04-02T04:48:36.525Z,99649.91
2023-04-02T04:51:16.682Z,99657.19
2023-04-02T04:53:49.031Z,99656.31
2023-04-02T04:56:19.828Z,99660.47
2023-04-02T04:59:04.148Z,99661.97
2023-04-02T05:02:23.110Z,99662.25
2023-04-02T05:04:52.001Z,99675.31
2023-04-02T05:07:18.376Z,99681.31
2023-04-02T05:10:19.995Z,99681.38
2023-04-02T05:13:01.697Z,99680.56
2023-04-02T05:15:54.713Z,99694.97
2023-04-02T05:18:32.965Z,99701.69
2023-04-02T05:21:08.447Z,99705.28
2023-04-02T05:23:51.125Z,99698.13
2023-04-02T05:26:43.111Z,99705.44
2023-04-02T05:29:14.714Z,99712.44
2023-04-02T05:31:49.630Z,99713.38
2023-04-02T05:34:23.776Z,99713.25
2023-04-02T05:36:50.421Z,99723.88
2023-04-02T05:39:22.362Z,99724.69
2023-04-02T05:41:57.007Z,99727.50
2023-04-02T05:44:31.293Z,99735.34
2023-04-02T05:47:21.047Z,99733.63
2023-04-02T05:49:53.337Z,99749.47
2023-04-02T05:52:29.820Z,99741.28
2023-04-02T05:55:11.360Z,99743.78
2023-04-02T05:58:01.267Z,99754.28
2023-04-02T06:00:36.418Z,99756.91
2023-04-02T06:03:12.662Z,99765.63
2023-04-02T06:05:43.668Z,99762.94
2023-04-02T06:08:22.731Z,99763.50
2023-04-02T06:10:56.462Z,99778.31
2023-04-02T06:13:23.248Z,99772.00
2023-04-02T06:15:49.897Z,99773.84
2023-04-02T06:18:23.461Z,99782.75
2023-04-02T06:20:50.488Z,99787.66
2023-04-02T06:23:23.400Z,99792.75
2023-04-02T06:25:57.456Z,99798.81
2023-04-02T06:28:40.726Z,99797.56
2023-04-02T06:31:12.062Z,99805.59
2023-04-02T06:33:38.558Z,99810.91
2023-04-02T06:36:07.778Z,99815.13
2023-04-02T06:38:36.175Z,99811.41
2023-04-02T06:41:15.423Z,99822.44
2023-04-02T06:43:51.031Z,99825.31
2023-04-02T06:46:26.835Z,99827.78
2023-04-02T06:49:00.561Z,99837.94
2023-04-02T06:51:28.760Z,99840.84
2023-04-02T06:53:56.181Z,99848.97
2023-04-02T06:56:44.606Z,99854.38
2023-04-02T06:59:12.710Z,99854.56
2023-04-02T07:01:53.548Z,99860.91
2023-04-02T07:04:21.622Z,99864.44
2023-04-02T07:06:48.102Z,99866.81
2023-04-02T07:09:14.594Z,99875.53
2023-04-02T07:11:41.205Z,99878.19
2023-04-02T07:14:12.995Z,99887.97
2023-04-02T07:16:40.995Z,99880.72
2023-04-02T07:19:09.170Z,99891.22
2023-04-02T07:21:35.597Z,99896.34
2023-04-02T07:24:02.023Z,99900.00
2023-04-02T07:26:28.577Z,99911.72
2023-04-02T07:28:56.406Z,99909.59
2023-04-02T07:31:28.021Z,99921.84
2023-04-02T07:34:00.659Z,99918.84
2023-04-02T07:36:29.513Z,99934.19
2023-04-02T07:38:56.086Z,99929.88
2023-04-02T07:41:23.262Z,99935.75
2023-04-02T07:43:50.001Z,99938.19
2023-04-02T07:46:17.996Z,99946.00
2023-04-02T07:48:44.986Z,99942.28
2023-04-02T07:51:23.337Z,99952.53
2023-04-02T07:53:50.984Z,99955.78
2023-04-02T07:56:19.608Z,99955.88
2023-04-02T07:58:46.208Z,99959.63
2023-04-02T08:01:18.858Z,99974.78
2023-04-02T08:03:46.302Z,99968.19
2023-04-02T08:06:13.051Z,99978.69
2023-04-02T08:08:39.658Z,99986.41
2023-04-02T08:11:06.653Z,99994.47
2023-04-02T08:13:33.139Z,99985.81
2023-04-02T08:16:00.602Z,99990.81
2023-04-02T08:18:27.283Z,99989.41
2023-04-02T08:20:53.683Z,100000.47
2023-04-02T08:23:21.592Z,100005.16
2023-04-02T08:25:48.763Z,100023.63
2023-04-02T08:28:16.014Z,100035.75
2023-04-02T08:30:42.945Z,100031.06
2023-04-02T08:33:09.517Z,100051.22
2023-04-02T08:35:36.602Z,100049.13
2023-04-02T08:38:03.237Z,100061.00
2023-04-02T08:40:41.596Z,100055.53
2023-04-02T08:43:28.792Z,100069.41
2023-04-02T08:46:27.972Z,100079.09
2023-04-02T08:49:00.576Z,100071.41
2023-04-02T08:51:31.380Z,100090.63
2023-04-02T08:54:18.600Z,100099.75
2023-04-02T08:56:56.866Z,100106.00
2023-04-02T08:59:32.619Z,100109.81
2023-04-02T09:02:28.795Z,100099.75
2023-04-02T09:05:02.283Z,100110.44
2023-04-02T09:07:29.215Z,100113.03
2023-04-02T09:09:57.936Z,100116.03
2023-04-02T09:12:30.922Z,100130.69
2023-04-02T09:14:57.629Z,100133.31
2023-04-02T09:17:26.487Z,100137.81
2023-04-02T09:20:19.160Z,100141.91
2023-04-02T09:22:48.528Z,100155.22
2023-04-02T09:25:26.867Z,100153.22
2023-04-02T09:27:55.649Z,100164.84
2023-04-02T09:30:47.221Z,100157.84
2023-04-02T09:33:13.694Z,100156.69
2023-04-02T09:35:48.991Z,100167.03
2023-04-02T09:38:18.470Z,100176.09
2023-04-02T09:40:58.689Z,100184.56
2023-04-02T09:43:25.017Z,100184.34
2023-04-02T09:46:04.919Z,100192.44
2023-04-02T09:48:35.404Z,100200.53
2023-04-02T09:51:12.710Z,100206.59
2023-04-02T09:53:49.197Z,100203.97
2023-04-02T09:56:24.381Z,100206.84
2023-04-02T09:59:03.217Z,100208.81
2023-04-02T10:01:38.779Z,100211.75
2023-04-02T10:04:26.592Z,100222.38
2023-04-02T10:07:00.466Z,100220.03
2023-04-02T10:09:32.576Z,100232.84
2023-04-02T10:12:03.268Z,100235.22
2023-04-02T10:14:40.241Z,100249.97
2023-04-02T10:17:19.913Z,100254.28
2023-04-02T10:19:51.413Z,100267.41
2023-04-02T10:22:20.425Z,100271.84
2023-04-02T10:24:47.335Z,100271.56
2023-04-02T10:27:31.310Z,100283.28
2023-04-02T10:30:37.243Z,100277.97
2023-04-02T10:33:20.105Z,100291.59
2023-04-02T10:36:04.774Z,100290.06
2023-04-02T10:38:47.899Z,100294.66
2023-04-02T10:41:32.319Z,100303.09
2023-04-02T10:44:09.523Z,100307.94
2023-04-02T10:47:07.310Z,100314.13
2023-04-02T10:50:04.968Z,100323.13
2023-04-02T10:52:39.952Z,100331.94
2023-04-02T10:55:15.522Z,100348.75
2023-04-02T10:57:43.943Z,100348.81
2023-04-02T11:00:16.667Z,100349.47
2023-04-02T11:02:49.349Z,100362.13
2023-04-02T11:05:43.243Z,100362.09
2023-04-02T11:08:18.652Z,100362.69
2023-04-02T11:10:50.819Z,100372.63
2023-04-02T11:13:28.239Z,100372.34
2023-04-02T11:15:54.836Z,100378.56
2023-04-02T11:18:35.646Z,100386.97
2023-04-02T11:21:04.425Z,100394.94
2023-04-02T11:23:53.764Z,100399.06
2023-04-02T11:26:38.214Z,100410.53
2023-04-02T11:29:38.773Z,100405.44
2023-04-02T11:32:20.534Z,100410.97
2023-04-02T11:34:49.529Z,100417.56
2023-04-02T11:37:38.385Z,100417.03
2023-04-02T11:40:44.696Z,100421.03
2023-04-02T11:43:32.921Z,100431.09
2023-04-02T11:46:00.701Z,100427.75
2023-04-02T11:48:31.032Z,100435.94
2023-04-02T11:50:58.183Z,100444.19
2023-04-02T11:53:32.986Z,100446.63
2023-04-02T11:56:29.419Z,100449.41
2023-04-02T11:59:05.280Z,100450.09
2023-04-02T12:02:01.986Z,100458.72
2023-04-02T12:04:46.590Z,100455.97
2023-04-02T12:07:36.897Z,100461.53
2023-04-02T12:10:11.846Z,100466.97
2023-04-02T12:12:39.353Z,100478.38
2023-04-02T12:15:43.514Z,100478.31
2023-04-02T12:18:25.357Z,100483.03
2023-04-02T12:20:55.841Z,100484.84
2023-04-02T12:23:33.710Z,100493.56
2023-04-02T12:26:08.872Z,100504.13
2023-04-02T12:28:37.981Z,100504.97
2023-04-02T12:31:19.146Z,100515.03
2023-04-02T12:33:46.282Z,100512.25
2023-04-02T12:36:14.364Z,100516.41
2023-04-02T12:38:46.905Z,100531.72
2023-04-02T12:41:24.507Z,100535.97
2023-04-02T12:44:01.882Z,100538.00
2023-04-02T12:46:31.099Z,100531.91
2023-04-02T12:49:06.868Z,100536.50
2023-04-02T12:51:37.882Z,100539.88
2023-04-02T12:54:05.354Z,100544.03
2023-04-02T12:56:31.856Z,100543.34
2023-04-02T12:59:00.692Z,100545.47
2023-04-02T13:01:31.766Z,100546.13
2023-04-02T13:04:13.565Z,100545.22
2023-04-02T13:06:47.276Z,100549.66
2023-04-02T13:09:34.218Z,100550.47
2023-04-02T13:12:01.712Z,100559.59
2023-04-02T13:14:28.432Z,100556.03
2023-04-02T13:16:56.030Z,100554.91
2023-04-02T13:19:31.496Z,100559.53
2023-04-02T13:22:00.805Z,100559.94
2023-04-02T13:24:35.155Z,100565.38
2023-04-02T13:27:03.473Z,100569.97
2023-04-02T13:29:30.996Z,100570.19
2023-04-02T13:32:06.507Z,100573.84
2023-04-02T13:34:33.132Z,100582.81
2023-04-02T13:36:59.891Z,100580.22
2023-04-02T13:39:27.150Z,100584.41
2023-04-02T13:42:02.794Z,100588.59
2023-04-02T13:44:34.596Z,100592.31
2023-04-02T13:47:01.400Z,100584.81
2023-04-02T13:49:28.131Z,100603.94
2023-04-02T13:51:58.744Z,100602.44
2023-04-02T13:54:56.144Z,100610.81
2023-04-02T13:57:22.623Z,100619.38
2023-04-02T13:59:49.099Z,100615.63
2023-04-02T14:02:24.539Z,100616.06
2023-04-02T14:05:03.798Z,100619.81
2023-04-02T14:07:36.914Z,100623.34
2023-04-02T14:10:22.987Z,100628.03
2023-04-02T14:13:18.547Z,100630.25
2023-04-02T14:15:57.052Z,100628.53
2023-04-02T14:18:33.017Z,100635.00
2023-04-02T14:21:29.042Z,100636.63
2023-04-02T14:24:07.322Z,100634.91
2023-04-02T14:26:53.196Z,100644.91
2023-04-02T14:29:31.494Z,100650.19
2023-04-02T14:32:08.731Z,100657.13
2023-04-02T14:34:56.451Z,100665.84
2023-04-02T14:37:39.815Z,100667.19
2023-04-02T14:40:51.898Z,100679.84
2023-04-02T14:43:27.487Z,100678.19
2023-04-02T14:46:04.362Z,100673.81
2023-04-02T14:48:54.188Z,100682.63
2023-04-02T14:51:29.125Z,100686.25
2023-04-02T14:53:59.349Z,100688.59
2023-04-02T14:56:26.521Z,100687.88
2023-04-02T14:59:21.141Z,100686.97
2023-04-02T15:01:50.597Z,100693.97
2023-04-02T15:04:22.825Z,100700.63
2023-04-02T15:06:56.643Z,100707.03
2023-04-02T15:09:35.611Z,100712.31
2023-04-02T15:12:10.746Z,100716.72
2023-04-02T15:14:47.608Z,100709.38
2023-04-02T15:17:14.088Z,100722.03
2023-04-02T15:19:40.523Z,100718.38
2023-04-02T15:22:18.978Z,100730.06
2023-04-02T15:24:45.323Z,100732.34
2023-04-02T15:27:24.437Z,100725.50
2023-04-02T15:29:56.230Z,100719.91
2023-04-02T15:32:38.327Z,100725.59
2023-04-02T15:35:29.375Z,100734.63
2023-04-02T15:38:11.068Z,100742.38
2023-04-02T15:40:43.526Z,100749.72
2023-04-02T15:43:29.489Z,100740.91
2023-04-02T15:46:37.857Z,100744.53
2023-04-02T15:49:19.962Z,100756.19
2023-04-02T15:52:01.665Z,100750.88
2023-04-02T15:54:37.519Z,100758.88
2023-04-02T15:57:45.638Z,100765.88
2023-04-02T16:00:12.472Z,100770.34
2023-04-02T16:02:53.725Z,100772.91
2023-04-02T16:05:41.667Z,100776.56
2023-04-02T16:08:39.296Z,100783.59
2023-04-02T16:11:14.916Z,100790.59
2023-04-02T16:13:44.075Z,100790.59
2023-04-02T16:16:27.018Z,100795.84
2023-04-02T16:18:59.412Z,100795.91
2023-04-02T16:21:32.834Z,100800.38
2023-04-02T16:23:59.450Z,100807.53
2023-04-02T16:26:56.782Z,100822.41
2023-04-02T16:29:37.993Z,100811.84
2023-04-02T16:32:16.427Z,100824.44
2023-04-02T16:35:15.271Z,100838.66
2023-04-02T16:38:18.912Z,100829.78
2023-04-02T16:41:09.788Z,100839.47
2023-04-02T16:43:46.159Z,100843.00
2023-04-02T16:46:31.712Z,100849.38
2023-04-02T16:49:20.135Z,100857.28
2023-04-02T16:51:49.496Z,100867.91
2023-04-02T16:55:00.201Z,100869.63
2023-04-02T16:57:49.319Z,100873.19
2023-04-02T17:00:50.501Z,100877.63
2023-04-02T17:03:40.005Z,100876.75
2023-04-02T17:06:19.807Z,100882.91
2023-04-02T17:08:57.235Z,100879.38
2023-04-02T17:11:33.252Z,100897.81
2023-04-02T17:14:38.490Z,100902.28
2023-04-02T17:17:05.850Z,100913.69
2023-04-02T17:19:32.699Z,100925.19
2023-04-02T17:22:04.355Z,100921.69
2023-04-02T17:24:33.614Z,100929.59
2023-04-02T17:27:07.035Z,100928.72
2023-04-02T17:29:39.274Z,100931.34
2023-04-02T17:32:16.340Z,100943.72
2023-04-02T17:34:42.744Z,100949.00
2023-04-02T17:37:27.656Z,100955.19
2023-04-02T17:40:00.508Z,100970.13
2023-04-02T17:42:59.356Z,100968.38
2023-04-02T17:45:28.929Z,100959.56
2023-04-02T17:48:05.563Z,100959.59
2023-04-02T17:50:38.309Z,100971.91
2023-04-02T17:53:46.356Z,100982.47
2023-04-02T17:56:21.903Z,100994.75
2023-04-02T17:58:58.688Z,100988.63
2023-04-02T18:01:34.241Z,100992.13
2023-04-02T18:04:25.803Z,101004.44
2023-04-02T18:07:04.362Z,101013.25
2023-04-02T18:09:49.064Z,101007.97
2023-04-02T18:12:24.513Z,101010.59
2023-04-02T18:15:53.662Z,101028.19
2023-04-02T18:18:48.461Z,101035.25
2023-04-02T18:21:28.075Z,101034.38
2023-04-02T18:24:10.150Z,101051.09
2023-04-02T18:26:48.387Z,101054.59
2023-04-02T18:29:30.759Z,101058.16
2023-04-02T18:32:17.108Z,101070.44
2023-04-02T18:34:57.444Z,101074.84
2023-04-02T18:37:54.142Z,101082.75
2023-04-02T18:40:46.750Z,101087.19
2023-04-02T18:43:28.946Z,101088.06
2023-04-02T18:46:32.350Z,101098.59
2023-04-02T18:49:00.543Z,101095.94
2023-04-02T18:51:34.159Z,101101.22
2023-04-02T18:54:09.640Z,101109.16
2023-04-02T18:56:40.451Z,101108.22
2023-04-02T18:59:32.370Z,101113.56
2023-04-02T19:02:03.150Z,101127.59
2023-04-02T19:04:32.743Z,101126.72
2023-04-02T19:07:06.988Z,101120.53
2023-04-02T19:09:42.056Z,101131.06
2023-04-02T19:12:19.734Z,101136.34
2023-04-02T19:14:50.255Z,101141.63
2023-04-02T19:17:20.602Z,101150.47
2023-04-02T19:20:08.298Z,101160.09
2023-04-02T19:22:59.290Z,101153.94
2023-04-02T19:25:38.572Z,101163.69
2023-04-02T19:28:16.895Z,101165.44
2023-04-02T19:31:09.378Z,101169.78
2023-04-02T19:33:48.062Z,101179.50
2023-04-02T19:36:40.403Z,101173.34
2023-04-02T19:39:07.987Z,101183.91
2023-04-02T19:41:52.101Z,101179.44
2023-04-02T19:44:19.437Z,101185.59
2023-04-02T19:46:46.481Z,101190.91
2023-04-02T19:49:22.904Z,101183.84
2023-04-02T19:51:50.622Z,101190.06
2023-04-02T19:54:17.678Z,101191.81
2023-04-02T19:56:44.490Z,101187.38
2023-04-02T20:01:43.346Z,101197.97
2023-04-02T20:04:09.885Z,101202.31
2023-04-02T20:06:36.363Z,101209.38
2023-04-02T20:09:03.531Z,101208.41
2023-04-02T20:11:30.738Z,101212.88
2023-04-02T20:13:57.156Z,101212.06
2023-04-02T20:16:23.623Z,101224.38
2023-04-02T20:18:50.247Z,101221.75
2023-04-02T20:21:17.190Z,101228.78
2023-04-02T20:23:43.726Z,101229.59
2023-04-02T20:26:10.394Z,101231.47
2023-04-02T20:28:36.792Z,101232.34
2023-04-02T20:31:17.265Z,101241.22
2023-04-02T20:33:44.345Z,101249.09
2023-04-02T20:36:13.407Z,101249.94
2023-04-02T20:38:40.141Z,101257.06
2023-04-02T20:41:08.062Z,101258.84
2023-04-02T20:43:35.857Z,101264.03
2023-04-02T20:46:05.406Z,101261.31
2023-04-02T20:48:33.283Z,101262.34
2023-04-02T20:51:01.772Z,101264.09
2023-04-02T20:53:34.306Z,101268.44
2023-04-02T20:56:05.693Z,101266.75
2023-04-02T20:58:32.649Z,101270.16
2023-04-02T21:01:06.906Z,101264.84
2023-04-02T21:03:33.307Z,101271.97
2023-04-02T21:05:59.779Z,101272.00
2023-04-02T21:08:26.352Z,101270.28
2023-04-02T21:10:52.796Z,101279.94
2023-04-02T21:13:19.259Z,101280.78
2023-04-02T21:15:45.712Z,101282.66
2023-04-02T21:18:12.154Z,101280.00
2023-04-02T21:20:38.495Z,101281.69
2023-04-02T21:23:04.888Z,101283.41
2023-04-02T21:25:31.272Z,101274.50
2023-04-02T21:27:57.692Z,101281.56
2023-04-02T21:30:24.049Z,101282.44
2023-04-02T21:32:50.608Z,101285.06
2023-04-02T21:35:17.116Z,101284.28
2023-04-02T21:37:48.079Z,101288.53
2023-04-02T21:40:14.556Z,101292.06
2023-04-02T21:42:40.904Z,101293.00
2023-04-02T21:45:07.669Z,101293.00
2023-04-02T21:47:34.080Z,101296.53
2023-04-02T21:50:00.472Z,101300.13
2023-04-02T21:52:26.878Z,101304.50
2023-04-02T21:54:53.254Z,101303.69
2023-04-02T21:57:19.690Z,101299.16
2023-04-02T21:59:46.126Z,101300.19
2023-04-02T22:02:12.498Z,101302.88
2023-04-02T22:04:40.766Z,101304.63
2023-04-02T22:07:07.170Z,101309.78
2023-04-02T22:09:33.544Z,101307.28
2023-04-02T22:12:00.134Z,101309.00
2023-04-02T22:14:27.605Z,101307.09
2023-04-02T22:16:54.168Z,101311.41
2023-04-02T22:19:20.945Z,101306.28
2023-04-02T22:21:47.642Z,101309.88
2023-04-02T22:24:16.301Z,101305.53
2023-04-02T22:26:43.144Z,101310.81
2023-04-02T22:29:09.625Z,101302.84
2023-04-02T22:31:36.663Z,101307.97
2023-04-02T22:34:04.808Z,101307.88
2023-04-02T22:36:31.802Z,101309.72
2023-04-02T22:38:59.376Z,101300.94
2023-04-02T22:41:28.385Z,101301.88
2023-04-02T22:43:56.710Z,101293.09
2023-04-02T22:46:24.439Z,101297.41
2023-04-02T22:48:50.938Z,101290.44
2023-04-02T22:51:19.848Z,101303.66
2023-04-02T22:53:47.327Z,101302.59
2023-04-02T22:56:19.314Z,101302.59
2023-04-02T22:58:46.213Z,101308.84
2023-04-02T23:01:25.092Z,101300.09
2023-04-02T23:03:54.132Z,101304.47
2023-04-02T23:06:21.194Z,101300.03
2023-04-02T23:08:47.719Z,101297.41
2023-04-02T23:11:17.307Z,101307.16
2023-04-02T23:13:44.483Z,101309.78
2023-04-02T23:16:13.445Z,101303.63
2023-04-02T23:18:42.010Z,101312.38
2023-04-02T23:21:09.676Z,101315.00
2023-04-02T23:23:37.621Z,101309.72
2023-04-02T23:26:08.341Z,101314.19
2023-04-02T23:28:36.004Z,101307.97
2023-04-02T23:31:04.658Z,101308.03
2023-04-02T23:33:31.349Z,101313.25
2023-04-02T23:35:58.508Z,101315.06
2023-04-02T23:38:25.966Z,101313.22
2023-04-02T23:40:53.426Z,101309.78
2023-04-02T23:43:19.848Z,101320.28
2023-04-02T23:45:50.490Z,101309.66
2023-04-02T23:48:17.453Z,101320.38
2023-04-02T23:50:45.417Z,101311.63
2023-04-02T23:53:13.095Z,101315.88
2023-04-02T23:55:40.700Z,101316.75
2023-04-02T23:58:07.353Z,101322.03
